createdAt,value
2018-09-17T00:00:55.045Z,4.83
2018-09-17T00:03:23.269Z,4.40
2018-09-17T00:05:51.705Z,4.30
2018-09-17T00:08:20.177Z,4.40
2018-09-17T00:10:48.737Z,4.10
2018-09-17T00:13:17.213Z,4.40
2018-09-17T00:15:45.870Z,5.07
2018-09-17T00:18:14.216Z,4.30
2018-09-17T00:20:42.670Z,5.00
2018-09-17T00:23:11.388Z,4.57
2018-09-17T00:25:40.134Z,5.67
2018-09-17T00:28:08.266Z,4.80
2018-09-17T00:30:36.733Z,5.23
2018-09-17T00:33:04.860Z,5.50
2018-09-17T00:35:33.029Z,5.57
2018-09-17T00:38:01.321Z,5.17
2018-09-17T00:40:29.814Z,5.50
2018-09-17T00:42:57.956Z,5.20
2018-09-17T00:45:26.461Z,6.10
2018-09-17T00:47:54.824Z,5.87
2018-09-17T00:50:22.970Z,5.87
2018-09-17T00:52:51.437Z,5.70
2018-09-17T00:55:19.688Z,5.40
2018-09-17T00:57:47.905Z,5.60
2018-09-17T01:00:16.796Z,5.73
2018-09-17T01:02:45.273Z,5.70
2018-09-17T01:05:13.762Z,6.17
2018-09-17T01:07:41.909Z,6.30
2018-09-17T01:10:12.324Z,5.57
2018-09-17T01:12:40.490Z,6.20
2018-09-17T01:15:08.968Z,5.67
2018-09-17T01:17:37.097Z,5.50
2018-09-17T01:20:05.901Z,5.00
2018-09-17T01:22:34.024Z,5.43
2018-09-17T01:25:02.573Z,5.90
2018-09-17T01:27:30.932Z,5.70
2018-09-17T01:29:59.260Z,5.93
2018-09-17T01:32:32.297Z,6.10
2018-09-17T01:35:06.416Z,6.20
2018-09-17T01:37:34.988Z,6.90
2018-09-17T01:40:08.025Z,6.93
2018-09-17T01:42:36.337Z,6.00
2018-09-17T01:45:04.463Z,6.13
2018-09-17T01:47:32.936Z,6.03
2018-09-17T01:50:01.403Z,5.80
2018-09-17T01:52:30.069Z,6.10
2018-09-17T01:54:58.568Z,5.80
2018-09-17T01:57:26.677Z,6.00
2018-09-17T01:59:55.325Z,5.50
2018-09-17T02:02:23.814Z,6.20
2018-09-17T02:04:52.151Z,5.50
2018-09-17T02:07:20.877Z,6.47
2018-09-17T02:09:49.079Z,6.23
2018-09-17T02:12:19.203Z,6.20
2018-09-17T02:14:47.668Z,5.60
2018-09-17T02:17:16.112Z,5.77
2018-09-17T02:19:44.245Z,5.57
2018-09-17T02:22:12.709Z,5.07
2018-09-17T02:24:40.861Z,5.83
2018-09-17T02:27:08.994Z,5.20
2018-09-17T02:29:37.419Z,5.67
2018-09-17T02:32:06.223Z,5.10
2018-09-17T02:34:34.564Z,5.13
2018-09-17T02:37:02.712Z,5.63
2018-09-17T02:39:31.153Z,6.53
2018-09-17T02:41:59.289Z,5.50
2018-09-17T02:44:27.925Z,5.27
2018-09-17T02:46:56.421Z,5.90
2018-09-17T02:49:24.548Z,5.20
2018-09-17T02:51:53.225Z,6.00
2018-09-17T02:54:21.911Z,5.60
2018-09-17T02:56:50.413Z,4.80
2018-09-17T02:59:18.748Z,5.53
2018-09-17T03:01:47.255Z,4.90
2018-09-17T03:04:15.877Z,6.43
2018-09-17T03:06:44.040Z,4.90
2018-09-17T03:09:12.437Z,5.10
2018-09-17T03:11:41.253Z,5.50
2018-09-17T03:14:09.377Z,4.90
2018-09-17T03:16:48.780Z,5.23
2018-09-17T03:19:17.247Z,5.67
2018-09-17T03:21:45.589Z,5.10
2018-09-17T03:24:13.961Z,5.60
2018-09-17T03:26:42.101Z,5.67
2018-09-17T03:29:10.533Z,4.97
2018-09-17T03:31:39.075Z,5.77
2018-09-17T03:34:07.200Z,5.60
2018-09-17T03:36:35.334Z,5.77
2018-09-17T03:39:04.757Z,5.50
2018-09-17T03:41:32.927Z,5.37
2018-09-17T03:44:01.396Z,5.87
2018-09-17T03:46:30.110Z,5.67
2018-09-17T03:48:58.386Z,6.07
2018-09-17T03:51:26.541Z,5.50
2018-09-17T03:53:54.697Z,6.13
2018-09-17T03:56:22.810Z,6.70
2018-09-17T03:58:51.035Z,5.87
2018-09-17T04:01:19.737Z,5.53
2018-09-17T04:03:48.365Z,5.67
2018-09-17T04:06:16.837Z,5.70
2018-09-17T04:08:45.145Z,5.47
2018-09-17T04:11:14.978Z,5.90
2018-09-17T04:13:45.121Z,6.10
2018-09-17T04:16:13.289Z,5.70
2018-09-17T04:18:41.407Z,5.63
2018-09-17T04:21:09.556Z,5.60
2018-09-17T04:23:38.388Z,6.10
2018-09-17T04:26:07.977Z,6.00
2018-09-17T04:28:36.597Z,5.00
2018-09-17T04:31:05.309Z,5.27
2018-09-17T04:33:35.486Z,5.47
2018-09-17T04:36:03.945Z,7.10
2018-09-17T04:38:32.116Z,6.80
2018-09-17T04:41:00.248Z,6.83
2018-09-17T04:43:28.427Z,6.53
2018-09-17T04:45:56.895Z,6.23
2018-09-17T04:48:25.806Z,6.60
2018-09-17T04:50:54.465Z,6.00
2018-09-17T04:53:23.193Z,6.03
2018-09-17T04:55:51.660Z,6.63
2018-09-17T04:58:20.261Z,5.60
2018-09-17T05:00:48.816Z,5.97
2018-09-17T05:03:17.320Z,6.73
2018-09-17T05:05:45.813Z,6.60
2018-09-17T05:08:14.008Z,6.87
2018-09-17T05:10:42.668Z,8.03
2018-09-17T05:13:11.267Z,7.53
2018-09-17T05:15:39.825Z,7.87
2018-09-17T05:18:08.007Z,7.90
2018-09-17T05:20:36.515Z,8.13
2018-09-17T05:23:04.884Z,9.17
2018-09-17T05:25:33.072Z,9.50
2018-09-17T05:28:01.949Z,11.07
2018-09-17T05:30:30.110Z,11.57
2018-09-17T05:32:58.258Z,10.50
2018-09-17T05:35:26.741Z,11.43
2018-09-17T05:37:55.145Z,9.57
2018-09-17T05:40:23.629Z,8.90
2018-09-17T05:42:51.997Z,9.10
2018-09-17T05:45:20.513Z,6.83
2018-09-17T05:47:49.057Z,8.20
2018-09-17T05:50:17.544Z,10.70
2018-09-17T05:52:45.684Z,8.83
2018-09-17T05:55:14.184Z,8.67
2018-09-17T05:57:42.624Z,9.40
2018-09-17T06:00:10.789Z,8.60
2018-09-17T06:02:38.973Z,9.40
2018-09-17T06:05:07.701Z,8.03
2018-09-17T06:07:36.190Z,8.70
2018-09-17T06:10:14.806Z,9.07
2018-09-17T06:12:44.093Z,8.97
2018-09-17T06:15:12.274Z,8.50
2018-09-17T06:17:40.446Z,7.90
2018-09-17T06:20:09.546Z,7.30
2018-09-17T06:22:37.706Z,7.90
2018-09-17T06:25:05.971Z,8.07
2018-09-17T06:27:34.187Z,8.30
2018-09-17T06:30:02.696Z,7.70
2018-09-17T06:32:31.096Z,7.80
2018-09-17T06:34:59.603Z,7.70
2018-09-17T06:37:27.974Z,7.53
2018-09-17T06:39:56.901Z,8.83
2018-09-17T06:42:25.271Z,7.73
2018-09-17T06:44:53.476Z,7.70
2018-09-17T06:47:22.121Z,7.73
2018-09-17T06:49:50.758Z,8.07
2018-09-17T06:52:19.224Z,8.43
2018-09-17T06:54:47.719Z,8.37
2018-09-17T06:57:15.871Z,8.07
2018-09-17T06:59:44.045Z,8.20
2018-09-17T07:02:13.017Z,8.87
2018-09-17T07:04:41.216Z,7.83
2018-09-17T07:07:09.365Z,7.20
2018-09-17T07:09:37.521Z,7.03
2018-09-17T07:12:06.948Z,6.57
2018-09-17T07:14:35.108Z,6.43
2018-09-17T07:17:03.494Z,6.70
2018-09-17T07:19:31.985Z,6.50
2018-09-17T07:22:00.137Z,6.60
2018-09-17T07:24:28.279Z,6.70
2018-09-17T07:26:56.417Z,7.13
2018-09-17T07:29:24.610Z,5.70
2018-09-17T07:31:53.085Z,6.23
2018-09-17T07:34:21.228Z,6.80
2018-09-17T07:36:49.636Z,5.30
2018-09-17T07:39:20.769Z,6.77
2018-09-17T07:41:48.917Z,6.27
2018-09-17T07:44:18.306Z,5.20
2018-09-17T07:46:46.985Z,5.60
2018-09-17T07:49:15.465Z,5.67
2018-09-17T07:51:43.661Z,5.10
2018-09-17T07:54:12.369Z,6.10
2018-09-17T07:56:41.383Z,5.80
2018-09-17T07:59:09.909Z,6.17
2018-09-17T08:01:38.076Z,5.23
2018-09-17T08:04:06.663Z,5.73
2018-09-17T08:06:34.829Z,6.00
2018-09-17T08:09:03.075Z,6.87
2018-09-17T08:11:34.960Z,6.47
2018-09-17T08:14:04.021Z,4.60
2018-09-17T08:16:32.521Z,4.23
2018-09-17T08:19:01.062Z,3.70
2018-09-17T08:21:29.228Z,3.90
2018-09-17T08:23:57.569Z,3.87
2018-09-17T08:26:26.049Z,3.73
2018-09-17T08:28:54.233Z,3.97
2018-09-17T08:31:22.438Z,3.23
2018-09-17T08:33:50.754Z,4.10
2018-09-17T08:36:19.237Z,3.70
2018-09-17T08:38:48.638Z,3.97
2018-09-17T08:41:17.000Z,3.60
2018-09-17T08:43:49.428Z,3.10
2018-09-17T08:46:26.927Z,3.53
2018-09-17T08:48:55.649Z,3.50
2018-09-17T08:51:23.791Z,2.80
2018-09-17T08:53:51.912Z,2.73
2018-09-17T08:56:20.452Z,3.30
2018-09-17T08:58:54.527Z,2.90
2018-09-17T09:01:28.030Z,3.70
2018-09-17T09:04:01.975Z,4.03
2018-09-17T09:06:38.009Z,3.07
2018-09-17T09:09:09.849Z,2.80
2018-09-17T09:11:44.805Z,2.90
2018-09-17T09:14:18.600Z,2.77
2018-09-17T09:16:50.449Z,2.53
2018-09-17T09:19:28.443Z,2.60
2018-09-17T09:21:57.098Z,2.90
2018-09-17T09:24:25.251Z,2.17
2018-09-17T09:26:53.749Z,2.00
2018-09-17T09:29:22.200Z,2.60
2018-09-17T09:31:50.681Z,2.60
2018-09-17T09:34:18.828Z,1.90
2018-09-17T09:36:46.975Z,2.20
2018-09-17T09:39:15.457Z,2.53
2018-09-17T09:41:43.626Z,2.50
2018-09-17T09:44:12.360Z,2.60
2018-09-17T09:46:40.527Z,2.43
2018-09-17T09:49:09.266Z,2.40
2018-09-17T09:51:37.417Z,2.13
2018-09-17T09:54:05.973Z,2.63
2018-09-17T09:56:34.493Z,2.57
2018-09-17T09:59:02.651Z,2.80
2018-09-17T10:01:37.066Z,2.80
2018-09-17T10:04:11.134Z,2.80
2018-09-17T10:06:39.606Z,5.67
2018-09-17T10:09:13.397Z,3.20
2018-09-17T10:11:49.297Z,3.40
2018-09-17T10:14:22.776Z,2.70
2018-09-17T10:16:56.384Z,3.10
2018-09-17T10:19:25.584Z,5.60
2018-09-17T10:21:54.185Z,4.40
2018-09-17T10:24:22.704Z,9.83
2018-09-17T10:26:54.249Z,3.03
2018-09-17T10:29:22.713Z,6.10
2018-09-17T10:31:51.186Z,3.07
2018-09-17T10:34:19.321Z,2.50
2018-09-17T10:36:47.792Z,2.43
2018-09-17T10:39:15.978Z,3.17
2018-09-17T10:41:44.200Z,3.00
2018-09-17T10:44:12.363Z,12.40
2018-09-17T10:46:41.048Z,10.67
2018-09-17T10:49:09.674Z,2.40
2018-09-17T10:51:38.350Z,3.10
2018-09-17T10:54:06.891Z,5.63
2018-09-17T10:56:35.344Z,2.83
2018-09-17T10:59:13.136Z,2.73
2018-09-17T11:01:41.618Z,3.33
2018-09-17T11:04:09.804Z,2.70
2018-09-17T11:06:38.189Z,3.30
2018-09-17T11:09:08.492Z,3.10
2018-09-17T11:11:37.475Z,3.60
2018-09-17T11:14:06.364Z,4.00
2018-09-17T11:16:34.594Z,3.00
2018-09-17T11:19:03.316Z,2.50
2018-09-17T11:21:31.430Z,3.13
2018-09-17T11:23:59.649Z,2.60
2018-09-17T11:26:28.129Z,2.67
2018-09-17T11:28:56.780Z,2.67
2018-09-17T11:31:24.963Z,2.57
2018-09-17T11:33:59.326Z,2.60
2018-09-17T11:36:33.458Z,2.87
2018-09-17T11:39:01.949Z,2.37
2018-09-17T11:41:30.105Z,2.67
2018-09-17T11:43:58.476Z,2.23
2018-09-17T11:46:26.637Z,2.13
2018-09-17T11:48:55.260Z,2.33
2018-09-17T11:51:23.755Z,2.47
2018-09-17T11:53:52.085Z,2.83
2018-09-17T11:56:20.754Z,3.07
2018-09-17T11:58:48.933Z,2.63
2018-09-17T12:01:25.603Z,2.47
2018-09-17T12:03:59.520Z,2.40
2018-09-17T12:06:33.098Z,2.20
2018-09-17T12:09:01.241Z,2.37
2018-09-17T12:11:31.686Z,2.10
2018-09-17T12:13:59.866Z,2.50
2018-09-17T12:16:28.027Z,2.30
2018-09-17T12:18:56.200Z,2.00
2018-09-17T12:21:24.684Z,2.23
2018-09-17T12:23:52.882Z,2.30
2018-09-17T12:26:21.575Z,2.47
2018-09-17T12:28:57.264Z,2.30
2018-09-17T12:31:29.302Z,2.53
2018-09-17T12:33:57.599Z,2.70
2018-09-17T12:36:25.832Z,2.87
2018-09-17T12:38:53.979Z,2.47
2018-09-17T12:41:22.114Z,2.80
2018-09-17T12:43:50.265Z,2.40
2018-09-17T12:46:18.750Z,3.47
2018-09-17T12:48:46.954Z,3.33
2018-09-17T12:51:15.110Z,2.90
2018-09-17T12:53:43.423Z,2.83
2018-09-17T12:56:11.905Z,2.53
2018-09-17T12:58:40.377Z,3.37
2018-09-17T13:01:08.846Z,3.17
2018-09-17T13:03:36.976Z,3.40
2018-09-17T13:06:05.111Z,2.93
2018-09-17T13:08:33.284Z,3.57
2018-09-17T13:11:01.471Z,3.03
2018-09-17T13:13:29.620Z,2.60
2018-09-17T13:15:57.762Z,2.93
2018-09-17T13:18:26.435Z,3.57
2018-09-17T13:20:54.956Z,2.77
2018-09-17T13:23:23.072Z,3.30
2018-09-17T13:25:51.552Z,2.60
2018-09-17T13:28:19.713Z,3.40
2018-09-17T13:30:47.860Z,2.97
2018-09-17T13:33:16.022Z,3.50
2018-09-17T13:35:44.365Z,3.27
2018-09-17T13:38:13.050Z,3.73
2018-09-17T13:40:41.389Z,2.97
2018-09-17T13:43:09.525Z,2.73
2018-09-17T13:45:38.394Z,3.30
2018-09-17T13:48:06.752Z,3.30
2018-09-17T13:50:35.076Z,3.00
2018-09-17T13:53:03.445Z,3.80
2018-09-17T13:55:31.838Z,3.57
2018-09-17T13:58:00.522Z,3.77
2018-09-17T14:00:29.927Z,4.53
2018-09-17T14:02:58.589Z,4.00
2018-09-17T14:05:28.283Z,3.97
2018-09-17T14:07:56.576Z,4.13
2018-09-17T14:10:26.998Z,4.53
2018-09-17T14:12:55.153Z,4.73
2018-09-17T14:15:23.869Z,4.97
2018-09-17T14:17:52.449Z,3.50
2018-09-17T14:20:21.437Z,4.53
2018-09-17T14:22:49.566Z,5.50
2018-09-17T14:25:18.047Z,5.30
2018-09-17T14:27:46.376Z,5.10
2018-09-17T14:30:15.045Z,5.30
2018-09-17T14:32:48.771Z,5.47
2018-09-17T14:35:17.510Z,4.20
2018-09-17T14:37:45.844Z,4.00
2018-09-17T14:40:14.322Z,4.97
2018-09-17T14:42:42.476Z,4.77
2018-09-17T14:45:11.042Z,6.00
2018-09-17T14:47:39.528Z,4.93
2018-09-17T14:50:08.209Z,4.93
2018-09-17T14:52:36.346Z,4.97
2018-09-17T14:55:04.586Z,4.50
2018-09-17T14:57:32.908Z,4.50
2018-09-17T15:00:02.801Z,4.63
2018-09-17T15:02:31.287Z,4.40
2018-09-17T15:04:59.649Z,4.60
2018-09-17T15:07:32.592Z,4.80
2018-09-17T15:10:04.014Z,4.57
2018-09-17T15:12:34.771Z,4.90
2018-09-17T15:15:03.512Z,4.57
2018-09-17T15:17:32.162Z,5.03
2018-09-17T15:20:00.879Z,6.07
2018-09-17T15:22:29.240Z,5.93
2018-09-17T15:24:57.797Z,4.77
2018-09-17T15:27:25.958Z,5.30
2018-09-17T15:29:54.299Z,5.00
2018-09-17T15:32:23.096Z,5.10
2018-09-17T15:34:51.317Z,4.10
2018-09-17T15:37:19.829Z,3.70
2018-09-17T15:39:48.418Z,4.30
2018-09-17T15:42:18.394Z,4.40
2018-09-17T15:44:46.538Z,3.93
2018-09-17T15:47:15.214Z,4.10
2018-09-17T15:49:43.373Z,4.20
2018-09-17T15:52:11.729Z,4.33
2018-09-17T15:54:40.153Z,3.13
2018-09-17T15:57:08.305Z,3.97
2018-09-17T15:59:36.461Z,4.33
2018-09-17T16:02:05.158Z,3.80
2018-09-17T16:04:33.307Z,4.20
2018-09-17T16:07:01.440Z,4.73
2018-09-17T16:09:29.939Z,3.87
2018-09-17T16:11:58.086Z,3.43
2018-09-17T16:14:26.242Z,3.57
2018-09-17T16:16:54.385Z,4.50
2018-09-17T16:19:22.536Z,2.97
2018-09-17T16:21:50.841Z,3.03
2018-09-17T16:24:19.044Z,2.87
2018-09-17T16:26:47.156Z,3.13
2018-09-17T16:29:15.519Z,3.43
2018-09-17T16:31:43.893Z,4.00
2018-09-17T16:34:13.920Z,3.90
2018-09-17T16:36:44.341Z,3.20
2018-09-17T16:39:13.117Z,3.40
2018-09-17T16:41:41.852Z,3.00
2018-09-17T16:44:10.133Z,3.30
2018-09-17T16:46:38.270Z,2.00
2018-09-17T16:49:06.433Z,2.70
2018-09-17T16:51:35.172Z,3.07
2018-09-17T16:54:03.425Z,3.07
2018-09-17T16:56:31.620Z,3.40
2018-09-17T16:58:59.980Z,3.97
2018-09-17T17:01:29.139Z,4.80
2018-09-17T17:03:57.630Z,4.50
2018-09-17T17:06:26.059Z,3.73
2018-09-17T17:08:54.574Z,4.40
2018-09-17T17:11:24.367Z,4.57
2018-09-17T17:13:52.683Z,4.60
2018-09-17T17:16:20.915Z,3.70
2018-09-17T17:18:52.063Z,2.77
2018-09-17T17:21:20.505Z,3.10
2018-09-17T17:23:48.683Z,3.57
2018-09-17T17:29:07.621Z,3.47
2018-09-17T17:31:35.787Z,3.20
2018-09-17T17:34:04.524Z,3.23
2018-09-17T17:36:33.154Z,3.70
2018-09-17T17:39:01.646Z,3.50
2018-09-17T17:41:30.173Z,3.00
2018-09-17T17:43:58.801Z,3.30
2018-09-17T17:46:27.361Z,3.00
2018-09-17T17:48:55.560Z,3.30
2018-09-17T17:51:23.992Z,3.00
2018-09-17T17:53:52.195Z,2.97
2018-09-17T17:56:20.380Z,3.50
2018-09-17T17:58:48.708Z,3.30
2018-09-17T18:01:17.743Z,3.07
2018-09-17T18:03:46.309Z,3.07
2018-09-17T18:06:14.715Z,3.40
2018-09-17T18:08:43.456Z,2.90
2018-09-17T18:11:12.124Z,3.90
2018-09-17T18:13:40.332Z,3.07
2018-09-17T18:16:08.514Z,4.00
2018-09-17T18:18:37.072Z,3.60
2018-09-17T18:21:06.164Z,3.00
2018-09-17T18:23:34.515Z,3.50
2018-09-17T18:26:02.769Z,3.03
2018-09-17T18:28:31.264Z,3.20
2018-09-17T18:30:59.420Z,3.50
2018-09-17T18:33:27.590Z,3.27
2018-09-17T18:35:56.073Z,2.70
2018-09-17T18:38:24.249Z,3.50
2018-09-17T18:40:52.784Z,3.20
2018-09-17T18:43:20.977Z,2.93
2018-09-17T18:45:49.149Z,3.20
2018-09-17T18:48:17.325Z,3.10
2018-09-17T18:50:46.033Z,3.30
2018-09-17T18:53:14.453Z,2.67
2018-09-17T18:55:43.022Z,3.67
2018-09-17T18:58:11.372Z,3.67
2018-09-17T19:00:39.854Z,3.87
2018-09-17T19:03:08.083Z,3.00
2018-09-17T19:05:36.804Z,3.77
2018-09-17T19:08:05.273Z,3.50
2018-09-17T19:10:33.461Z,5.03
2018-09-17T19:13:01.600Z,28.37
2018-09-17T19:15:35.389Z,5.00
2018-09-17T19:18:09.065Z,5.03
2018-09-17T19:20:37.876Z,5.37
2018-09-17T19:23:11.733Z,3.67
2018-09-17T19:25:39.883Z,3.93
2018-09-17T19:28:14.078Z,4.70
2018-09-17T19:30:42.727Z,4.60
2018-09-17T19:33:10.861Z,3.80
2018-09-17T19:35:39.094Z,4.17
2018-09-17T19:38:13.558Z,4.30
2018-09-17T19:40:41.848Z,4.97
2018-09-17T19:43:10.003Z,5.30
2018-09-17T19:45:43.666Z,5.70
2018-09-17T19:48:12.013Z,4.47
2018-09-17T19:50:46.064Z,4.53
2018-09-17T19:53:14.415Z,4.50
2018-09-17T19:55:42.891Z,4.90
2018-09-17T19:58:16.949Z,5.60
2018-09-17T20:00:45.469Z,5.60
2018-09-17T20:03:13.765Z,4.87
2018-09-17T20:05:47.432Z,4.50
2018-09-17T20:08:15.897Z,4.70
2018-09-17T20:10:44.416Z,4.50
2018-09-17T20:13:12.880Z,5.17
2018-09-17T20:15:41.339Z,5.27
2018-09-17T20:18:09.462Z,5.70
2018-09-17T20:20:37.999Z,5.57
2018-09-17T20:23:06.630Z,5.03
2018-09-17T20:25:34.916Z,5.60
2018-09-17T20:28:03.553Z,5.40
2018-09-17T20:30:32.136Z,5.40
2018-09-17T20:33:00.277Z,5.50
2018-09-17T20:35:28.408Z,5.80
2018-09-17T20:37:57.076Z,5.90
2018-09-17T20:40:25.438Z,6.40
2018-09-17T20:42:53.610Z,5.60
2018-09-17T20:45:22.243Z,5.80
2018-09-17T20:47:50.397Z,6.10
2018-09-17T20:50:18.872Z,6.07
2018-09-17T20:52:47.035Z,5.93
2018-09-17T20:55:15.544Z,6.23
2018-09-17T20:57:44.265Z,6.63
2018-09-17T21:00:12.824Z,6.33
2018-09-17T21:02:41.173Z,5.77
2018-09-17T21:05:09.527Z,6.03
2018-09-17T21:07:37.713Z,6.37
2018-09-17T21:10:06.192Z,5.83
2018-09-17T21:12:34.396Z,5.40
2018-09-17T21:15:03.057Z,6.33
2018-09-17T21:17:31.279Z,5.77
2018-09-17T21:19:59.800Z,5.60
2018-09-17T21:22:28.410Z,6.10
2018-09-17T21:24:57.089Z,7.00
2018-09-17T21:27:25.391Z,7.30
2018-09-17T21:29:53.533Z,6.87
2018-09-17T21:32:21.724Z,6.63
2018-09-17T21:34:50.376Z,6.80
2018-09-17T21:37:18.731Z,6.93
2018-09-17T21:39:47.000Z,7.47
2018-09-17T21:42:15.679Z,7.60
2018-09-17T21:44:43.807Z,6.93
2018-09-17T21:47:12.001Z,7.57
2018-09-17T21:49:40.114Z,6.60
2018-09-17T21:52:08.767Z,6.47
2018-09-17T21:54:36.916Z,6.83
2018-09-17T21:57:05.769Z,6.43
2018-09-17T21:59:34.540Z,6.33
2018-09-17T22:02:03.024Z,6.40
2018-09-17T22:04:31.457Z,6.28
2018-09-17T22:06:59.800Z,7.63
2018-09-17T22:09:27.954Z,7.20
2018-09-17T22:11:56.411Z,8.23
2018-09-17T22:14:25.552Z,6.90
2018-09-17T22:16:53.692Z,7.80
2018-09-17T22:19:22.569Z,7.67
2018-09-17T22:21:51.104Z,7.13
2018-09-17T22:24:19.752Z,7.30
2018-09-17T22:26:47.873Z,7.30
2018-09-17T22:29:16.012Z,6.40
2018-09-17T22:31:44.976Z,6.87
2018-09-17T22:34:13.137Z,6.20
2018-09-17T22:36:41.571Z,7.10
2018-09-17T22:39:11.064Z,7.10
2018-09-17T22:41:40.134Z,6.85
2018-09-17T22:44:08.657Z,6.70
2018-09-17T22:46:37.115Z,7.00
2018-09-17T22:49:05.884Z,7.12
2018-09-17T22:51:34.643Z,6.57
2018-09-17T22:54:03.120Z,7.40
2018-09-17T22:56:31.864Z,7.65
2018-09-17T22:59:00.012Z,6.87
2018-09-17T23:01:28.525Z,8.00
2018-09-17T23:03:56.693Z,7.60
2018-09-17T23:06:25.070Z,7.90
2018-09-17T23:08:53.961Z,7.07
2018-09-17T23:11:22.683Z,7.40
2018-09-17T23:13:51.076Z,8.80
2018-09-17T23:16:19.759Z,7.33
2018-09-17T23:18:48.212Z,7.90
2018-09-17T23:21:16.832Z,7.20
2018-09-17T23:23:45.383Z,7.43
2018-09-17T23:26:13.800Z,6.83
2018-09-17T23:28:41.933Z,7.87
2018-09-17T23:31:10.477Z,6.80
2018-09-17T23:33:38.733Z,6.70
2018-09-17T23:36:07.539Z,6.70
2018-09-17T23:38:35.728Z,6.60
2018-09-17T23:41:04.705Z,6.50
2018-09-17T23:43:33.024Z,7.27
2018-09-17T23:46:01.153Z,7.23
2018-09-17T23:48:29.581Z,7.00
2018-09-17T23:50:58.064Z,6.73
2018-09-17T23:53:26.320Z,6.35
2018-09-17T23:55:55.333Z,6.70
2018-09-17T23:58:24.043Z,6.87
